GOSM

Ouro Sogui Airport

Matam, Senegal
METAR GOSM 181200Z 08004KT CAVOK 30/01 Q1016
Observed Flight Rules
Jan-18 @ 12:00 UTC (2 hours ago) Visual Flight Rules
Wind Visibility Clouds
80° at 4 knots 10,000+ meters
  • Clear skies
Temperatures Readings
Current 30°C / 86°F
Dewpoint 1°C / 34°F
Humidity 15%
Altimeter 30" Hg
Pressure 1015.92 hPa
Elevation 17
METAR GOSM 181200Z 08004KT CAVOK 30/01 Q1016
Observed Flight Rules
Jan-18 @ 12:00 UTC
(2 hours ago)
VFR
Wind Visibility
80° at 4 knots 10,000+ meters
Clouds
  • Clear skies
Temperature Dewpoint
30°C / 86°F 1°C / 34°F
Humidity Altimeter Pressure
15% 30" Hg 1015.92 hPa